Hawthorn Woods, Illinois
Current Conditions -  °F | °C
As of 7:52 AM on Saturday 20 Dec 2014 (Local Time) from KPWK Reporting Station
Overcast Overcast  
Wind Chill: 29°   Ceiling: 7000
Heat Index: 29°   Visibility: 7mi
Dew Point: 23°   Wind: 0mph
Humidity: 78%   Direction: NA
Pressure: 30.29"   Gusts: NA
Location:  42.201°N, 88.0504°W
Report Text: KPWK 201352Z 00000KT 7SM SCT031 OVC070 M02/M05 A3029 RMK AO2 SLP265 T10171050
Loading
Personal Weather Stations






























Interactive Weather Map New forecast layout! Learn more

10-Day Weather Forecast

Advertisements
Track Severe Weather on mobile